ENSG/SOG METAR and TAF weather

Enter ICAO airport designator
Station Type Date Time Source
ENSG METAR 2021/09/23 19:50 UTC NOAA

ENSG 231950Z 24017KT 9999 VCSH SCT015 SCT035 07/04 Q1002 RMK WIND 3806FT 27034KT


Station Type Date Time Source
ENSG Decoded METAR 2021/09/23 19:50 UTC NOAA

Sogndal / Haukasen, Norway (ENSG) 61-09N 007-08E 497M
Sep 23, 2021 - 03:50 PM EDT / 2021.09.23 1950 UTC
Wind: from the WSW (240 degrees) at 20 MPH (17 KT):0
Visibility: greater than 7 mile(s):0
Sky conditions: partly cloudy
Weather: showers in the vicinity
Temperature: 44 F (7 C)
Dew Point: 39 F (4 C)
Relative Humidity: 81%
Pressure (altimeter): 29.59 in. Hg (1002 hPa)
ob: ENSG 231950Z 24017KT 9999 VCSH SCT015 SCT035 07/04 Q1002 RMK WIND 3806FT 27034KT
cycle: 20

Station Type Date Time Source
ENSG TAF UTC NOAA

Error!

Example: see airport list